Decoded Metar for LFBA (AGEN in FRANCE) (IATA:AGF) | Meteo·Mobile Aviation Weather
aviador You're here:

LFBA Decoded Metar

AGEN in FRANCE
Report Time2020-02-23 10:00:00
UTC Time2020-02-23 10:29:52
Flight Rules lifr LIFR
WindVRB at 02 kt
Visibility0550 m
Phenomena:Fog
Clouds:N/A
Ceiling1,500 ft
Temp05°C (ISA -10)
Dew Point05°C (100% RH)
AAT3.2°C
QNH1035 hPa
Density Alt-1,588 ft
Elevation197 ft
Report Wrong Elevation
Raw Report
METAR LFBA 231000Z AUTO VRB02KT 0550 R29/0750N FG VV/// 05/05 Q1035
BECMG 6000 NSW BKN015=

Extra information for LFBA:More info

Metar Taf Metar & Taf Last 4 Metars F.Rules Stats Wind Profile Meteogram Temp Stats Airport Information Weather charts Add Link Nearby VenuesMetar ALERT Operation Metar Decoded Social comments